Time;durP1;ratioP1;P1;durP2;ratioP2;P2;SDS_P1;SDS_P2;PMS_P1;PMS_P2;Temp;Humidity;BMP_temperature;BMP_pressure;BME280_temperature;BME280_humidity;BME280_pressure;Samples;Min_cycle;Max_cycle;Signal;HPM_P1;HPM_P2
2023/04/12 00:00:00;;;;;;;5.77;3.00;;;4.00;99.90;;;;;;4878633;29;20214;-74
2023/04/12 00:02:28;;;;;;;4.17;2.40;;;4.00;99.90;;;;;;4878504;29;20635;-75
2023/04/12 00:05:01;;;;;;;5.37;2.50;;;4.00;99.90;;;;;;4878999;29;20213;-75
2023/04/12 00:07:29;;;;;;;4.57;2.30;;;4.00;99.90;;;;;;4879273;29;20206;-73
2023/04/12 00:09:57;;;;;;;5.50;2.47;;;4.00;99.90;;;;;;4880514;29;20222;-74
2023/04/12 00:12:26;;;;;;;4.67;2.67;;;4.00;99.90;;;;;;4879271;29;20218;-74
2023/04/12 00:14:54;;;;;;;3.83;2.47;;;4.00;99.90;;;;;;4878979;29;20244;-73
2023/04/12 00:17:22;;;;;;;4.30;2.60;;;3.90;99.90;;;;;;4878447;29;20218;-76
2023/04/12 00:19:50;;;;;;;3.67;2.13;;;4.00;99.90;;;;;;4878472;29;20285;-74
2023/04/12 00:22:19;;;;;;;6.03;2.67;;;4.00;99.90;;;;;;4878356;29;20220;-76
2023/04/12 00:24:47;;;;;;;3.70;2.30;;;4.00;99.90;;;;;;4878476;29;20215;-75
2023/04/12 00:27:15;;;;;;;5.17;2.60;;;4.00;99.90;;;;;;4877895;29;20232;-73
2023/04/12 00:29:43;;;;;;;5.30;2.20;;;4.00;99.90;;;;;;4878403;29;20229;-75
2023/04/12 00:32:11;;;;;;;5.27;2.40;;;4.00;99.90;;;;;;4893364;29;20231;-75
2023/04/12 00:34:39;;;;;;;5.03;2.50;;;4.00;99.90;;;;;;4898974;29;20236;-75
2023/04/12 00:37:08;;;;;;;8.20;2.30;;;4.00;99.90;;;;;;4882942;29;20210;-75
2023/04/12 00:39:38;;;;;;;4.93;2.07;;;4.10;99.90;;;;;;4883633;29;20639;-75
2023/04/12 00:42:06;;;;;;;4.70;2.30;;;4.10;99.90;;;;;;4883659;29;20221;-76
2023/04/12 00:44:34;;;;;;;3.93;2.43;;;4.10;99.90;;;;;;4883010;29;20680;-73
2023/04/12 00:47:04;;;;;;;5.67;2.23;;;4.10;99.90;;;;;;4882828;29;20218;-75
2023/04/12 00:49:34;;;;;;;3.70;2.17;;;4.20;99.90;;;;;;4882097;29;20273;-75
2023/04/12 00:52:05;;;;;;;4.40;2.30;;;4.20;99.90;;;;;;4881660;29;20301;-76
2023/04/12 00:54:34;;;;;;;3.40;2.20;;;4.30;99.90;;;;;;4882057;29;20218;-75
2023/04/12 00:57:03;;;;;;;3.20;2.23;;;4.30;99.90;;;;;;4882315;29;20223;-75
2023/04/12 00:59:31;;;;;;;4.53;2.27;;;4.30;99.90;;;;;;4881342;29;20222;-74
2023/04/12 01:02:00;;;;;;;3.63;2.50;;;4.30;99.90;;;;;;4881309;29;20538;-75
2023/04/12 01:04:29;;;;;;;3.57;2.10;;;4.30;99.90;;;;;;4881520;29;20222;-76
2023/04/12 01:07:15;;;;;;;4.63;2.27;;;4.40;99.90;;;;;;4881973;29;20218;-75
2023/04/12 01:09:52;;;;;;;5.17;2.30;;;4.40;99.90;;;;;;4881674;29;20232;-75
2023/04/12 01:12:46;;;;;;;4.13;2.30;;;4.40;99.90;;;;;;4881647;29;20210;-76
2023/04/12 01:15:16;;;;;;;4.30;2.53;;;4.50;99.90;;;;;;4881270;29;20708;-75
2023/04/12 01:17:51;;;;;;;6.73;2.30;;;4.50;99.90;;;;;;4891682;29;20214;-75
2023/04/12 01:20:23;;;;;;;4.43;2.13;;;4.50;99.90;;;;;;4899293;29;20614;-75
2023/04/12 01:23:17;;;;;;;4.57;2.00;;;4.50;99.90;;;;;;4900525;29;20217;-75
2023/04/12 01:26:09;;;;;;;4.90;2.27;;;4.50;99.90;;;;;;4896216;29;20206;-74
2023/04/12 01:28:42;;;;;;;4.10;2.07;;;4.50;99.90;;;;;;4881362;29;20218;-76
2023/04/12 01:31:11;;;;;;;5.57;2.40;;;4.50;99.90;;;;;;4898684;29;20276;-75
2023/04/12 01:33:43;;;;;;;4.03;2.10;;;4.50;99.90;;;;;;4899864;29;20213;-75
2023/04/12 01:36:15;;;;;;;8.33;2.27;;;4.50;99.90;;;;;;4880589;29;20229;-76
2023/04/12 01:38:43;;;;;;;2.70;1.60;;;4.50;99.90;;;;;;4880913;29;20209;-75
2023/04/12 01:41:12;;;;;;;5.17;2.07;;;4.50;99.90;;;;;;4881087;29;20217;-76
2023/04/12 01:43:42;;;;;;;3.17;1.87;;;4.50;99.90;;;;;;4879960;29;20296;-76
2023/04/12 01:46:11;;;;;;;4.47;1.87;;;4.60;99.90;;;;;;4880773;29;20211;-76
2023/04/12 01:48:39;;;;;;;2.70;2.00;;;4.60;99.90;;;;;;4881067;29;20211;-74
2023/04/12 01:51:14;;;;;;;5.17;2.17;;;4.60;99.90;;;;;;4880839;29;20218;-75
2023/04/12 01:53:49;;;;;;;3.33;2.10;;;4.60;99.90;;;;;;4880064;29;20209;-77
2023/04/12 01:56:19;;;;;;;4.03;2.10;;;4.60;99.90;;;;;;4880412;29;20217;-75
2023/04/12 01:58:53;;;;;;;3.73;1.87;;;4.70;99.90;;;;;;4881394;29;20221;-74
2023/04/12 02:01:22;;;;;;;3.10;1.80;;;4.70;99.90;;;;;;4880106;29;20783;-75
2023/04/12 02:03:51;;;;;;;4.07;2.00;;;4.70;99.90;;;;;;4881959;29;20219;-75
2023/04/12 02:06:20;;;;;;;2.73;1.87;;;4.70;99.90;;;;;;4883776;29;20218;-75
2023/04/12 02:08:48;;;;;;;4.07;1.87;;;4.80;99.90;;;;;;4880963;29;20225;-75
2023/04/12 02:11:16;;;;;;;2.90;1.70;;;4.80;99.90;;;;;;4880425;29;20211;-75
2023/04/12 02:13:44;;;;;;;3.40;1.93;;;4.90;99.90;;;;;;4880384;29;20214;-75
2023/04/12 02:16:14;;;;;;;3.67;1.90;;;4.90;99.90;;;;;;4880450;29;20262;-75
2023/04/12 02:18:42;;;;;;;3.03;2.07;;;4.90;99.90;;;;;;4880342;29;20669;-75
2023/04/12 02:21:10;;;;;;;5.37;2.03;;;5.00;99.90;;;;;;4889239;29;20305;-74
2023/04/12 02:23:38;;;;;;;4.80;1.80;;;5.00;99.90;;;;;;4880463;29;20274;-74
2023/04/12 02:26:07;;;;;;;3.03;1.90;;;5.00;99.90;;;;;;4880663;29;20213;-75
2023/04/12 02:28:36;;;;;;;6.43;2.37;;;5.00;99.90;;;;;;4879982;29;20257;-75
2023/04/12 02:31:05;;;;;;;4.43;1.97;;;5.10;99.90;;;;;;4880421;29;20245;-75
2023/04/12 02:33:34;;;;;;;4.47;1.80;;;5.00;99.90;;;;;;4880119;29;20621;-75
2023/04/12 02:36:03;;;;;;;3.87;1.80;;;5.10;99.90;;;;;;4880041;29;20289;-75
2023/04/12 02:38:31;;;;;;;2.43;1.90;;;5.10;99.90;;;;;;4879834;29;20214;-76
2023/04/12 02:41:00;;;;;;;3.80;2.17;;;5.00;99.90;;;;;;4879900;29;20308;-76
2023/04/12 02:43:28;;;;;;;3.83;2.07;;;5.00;99.90;;;;;;4879760;29;20213;-76
2023/04/12 02:45:56;;;;;;;4.90;2.03;;;5.00;99.90;;;;;;4879844;29;20213;-75
2023/04/12 02:48:24;;;;;;;4.30;1.90;;;5.00;99.90;;;;;;4880076;29;20275;-76
2023/04/12 02:50:53;;;;;;;4.33;1.90;;;5.00;99.90;;;;;;4880306;29;20218;-74
2023/04/12 02:53:24;;;;;;;5.87;2.00;;;5.00;99.90;;;;;;4878300;29;20217;-75
2023/04/12 02:55:52;;;;;;;2.97;1.77;;;5.00;99.90;;;;;;4878884;29;20670;-74
2023/04/12 02:58:20;;;;;;;4.20;1.90;;;5.00;99.90;;;;;;4879837;29;20210;-76
2023/04/12 03:00:48;;;;;;;3.87;1.90;;;5.00;99.90;;;;;;4879557;29;20733;-75
2023/04/12 03:03:17;;;;;;;3.83;1.87;;;5.00;99.90;;;;;;4879174;29;20609;-75
2023/04/12 03:05:46;;;;;;;5.27;1.80;;;5.10;99.90;;;;;;4879812;29;20221;-76
2023/04/12 03:08:16;;;;;;;3.70;1.80;;;5.10;99.90;;;;;;4883272;29;20201;-76
2023/04/12 03:10:44;;;;;;;4.27;2.10;;;5.00;99.90;;;;;;4888191;29;20213;-75
2023/04/12 03:13:12;;;;;;;5.23;2.40;;;4.90;99.90;;;;;;4897784;29;20219;-75
2023/04/12 03:15:40;;;;;;;4.73;2.10;;;4.90;99.90;;;;;;4898085;29;20244;-76
2023/04/12 03:18:08;;;;;;;4.50;2.30;;;4.90;99.90;;;;;;4897231;29;20371;-77
2023/04/12 03:20:37;;;;;;;4.13;2.00;;;4.80;99.90;;;;;;4894399;29;20217;-77
2023/04/12 03:23:05;;;;;;;3.73;2.00;;;4.70;99.90;;;;;;4879139;29;20250;-77
2023/04/12 03:25:35;;;;;;;5.90;2.40;;;4.80;99.90;;;;;;4879027;29;20309;-78
2023/04/12 03:28:04;;;;;;;4.43;2.40;;;4.70;99.90;;;;;;4894041;29;20217;-77
2023/04/12 03:30:32;;;;;;;6.40;2.30;;;4.70;99.90;;;;;;4886037;29;20232;-77
2023/04/12 03:33:00;;;;;;;4.00;2.60;;;4.70;99.90;;;;;;4879006;29;20210;-78
2023/04/12 03:35:29;;;;;;;5.63;2.53;;;4.70;99.90;;;;;;4879318;29;20233;-78
2023/04/12 03:37:57;;;;;;;5.40;2.50;;;4.70;99.90;;;;;;4878994;29;20217;-78
2023/04/12 03:40:25;;;;;;;5.73;2.63;;;4.70;99.90;;;;;;4879421;29;20220;-78
2023/04/12 03:42:54;;;;;;;5.47;2.50;;;4.70;99.90;;;;;;4878698;29;20309;-78
2023/04/12 03:45:22;;;;;;;8.03;2.67;;;4.70;99.90;;;;;;4878921;29;20224;-77
2023/04/12 03:47:51;;;;;;;3.93;2.47;;;4.70;99.90;;;;;;4879906;29;20599;-76
2023/04/12 03:50:19;;;;;;;3.97;2.30;;;4.70;99.90;;;;;;4879786;29;20222;-76
2023/04/12 03:52:47;;;;;;;4.83;2.60;;;4.70;99.90;;;;;;4894023;29;20238;-76
2023/04/12 03:55:16;;;;;;;4.93;2.60;;;4.70;99.90;;;;;;4888987;29;20224;-76
2023/04/12 03:57:45;;;;;;;7.10;2.57;;;4.60;99.90;;;;;;4878851;29;20325;-78
2023/04/12 04:00:15;;;;;;;4.63;2.70;;;4.70;99.90;;;;;;4880062;29;20214;-77
2023/04/12 04:02:46;;;;;;;4.37;2.47;;;4.70;99.90;;;;;;4878258;29;20257;-75
2023/04/12 04:05:14;;;;;;;4.83;2.60;;;4.70;99.90;;;;;;4879521;29;20218;-78
2023/04/12 04:07:42;;;;;;;6.33;2.93;;;4.70;99.90;;;;;;4878368;29;20665;-77
2023/04/12 04:10:11;;;;;;;4.27;2.50;;;4.70;99.90;;;;;;4879087;29;20214;-78
2023/04/12 04:12:39;;;;;;;6.80;2.73;;;4.70;99.90;;;;;;4878181;29;20221;-77
2023/04/12 04:15:08;;;;;;;3.93;2.50;;;4.70;99.90;;;;;;4878467;29;20266;-77
2023/04/12 04:17:37;;;;;;;7.17;2.83;;;4.70;99.90;;;;;;4878741;29;20241;-78
2023/04/12 04:20:07;;;;;;;5.47;2.83;;;4.70;99.90;;;;;;4878782;29;20218;-76
2023/04/12 04:22:35;;;;;;;5.03;2.80;;;4.80;99.90;;;;;;4888712;29;20218;-76
2023/04/12 04:25:05;;;;;;;3.80;2.73;;;4.80;99.90;;;;;;4892065;29;20237;-78
2023/04/12 04:27:33;;;;;;;4.70;2.87;;;4.80;99.90;;;;;;4911817;29;20209;-76
2023/04/12 04:30:01;;;;;;;5.40;2.73;;;4.80;99.90;;;;;;4910090;29;20240;-76
2023/04/12 04:32:30;;;;;;;6.30;3.00;;;4.80;99.90;;;;;;4895494;29;20316;-73
2023/04/12 04:35:00;;;;;;;5.87;2.70;;;4.80;99.90;;;;;;4895011;29;20273;-75
2023/04/12 04:37:29;;;;;;;7.27;3.33;;;4.80;99.90;;;;;;4896115;29;20285;-76
2023/04/12 04:39:57;;;;;;;6.33;3.13;;;4.90;99.90;;;;;;4891948;29;20225;-78
2023/04/12 04:42:25;;;;;;;4.93;2.63;;;4.90;99.90;;;;;;4878540;29;20677;-77
2023/04/12 04:45:03;;;;;;;3.50;2.77;;;4.90;99.90;;;;;;4878446;29;20214;-76
2023/04/12 04:47:31;;;;;;;6.40;2.70;;;4.90;99.90;;;;;;4878808;29;20195;-76
2023/04/12 04:50:01;;;;;;;4.47;2.80;;;5.00;99.90;;;;;;4878899;29;20213;-75
2023/04/12 04:52:29;;;;;;;7.37;3.10;;;4.90;99.90;;;;;;4877977;29;20298;-76
2023/04/12 04:54:57;;;;;;;4.77;3.00;;;4.90;99.90;;;;;;4877978;29;20210;-75
2023/04/12 04:57:26;;;;;;;5.43;2.70;;;5.00;99.90;;;;;;4877555;29;20256;-75
2023/04/12 04:59:54;;;;;;;7.33;2.80;;;5.00;99.90;;;;;;4877721;29;20253;-74
2023/04/12 05:02:22;;;;;;;5.60;2.93;;;5.00;99.90;;;;;;4877671;29;20238;-75
2023/04/12 05:04:51;;;;;;;6.73;2.90;;;5.00;99.90;;;;;;4877908;29;20222;-76
2023/04/12 05:07:20;;;;;;;4.57;2.70;;;5.00;99.90;;;;;;4878702;29;20317;-76
2023/04/12 05:09:48;;;;;;;4.10;2.57;;;5.00;99.90;;;;;;4878285;29;20218;-76
2023/04/12 05:12:16;;;;;;;7.33;2.97;;;5.00;99.90;;;;;;4878314;29;20227;-74
2023/04/12 05:14:44;;;;;;;6.20;2.77;;;5.10;99.90;;;;;;4878292;29;20218;-76
2023/04/12 05:17:18;;;;;;;5.27;2.70;;;5.00;99.90;;;;;;4878326;29;20274;-75
2023/04/12 05:19:46;;;;;;;5.57;2.77;;;5.00;99.90;;;;;;4881224;29;20321;-76
2023/04/12 05:22:19;;;;;;;8.63;2.60;;;5.10;99.90;;;;;;4881491;29;20211;-77
2023/04/12 05:24:48;;;;;;;5.03;3.10;;;5.00;99.90;;;;;;4893358;29;20245;-76
2023/04/12 05:27:17;;;;;;;3.63;2.67;;;5.00;99.90;;;;;;4900539;29;20261;-75
2023/04/12 05:29:46;;;;;;;4.40;2.53;;;5.10;99.90;;;;;;4894938;29;20293;-74
2023/04/12 05:32:14;;;;;;;5.80;2.67;;;5.10;99.90;;;;;;4889335;29;20738;-76
2023/04/12 05:34:43;;;;;;;5.17;2.40;;;5.00;99.90;;;;;;4895483;29;20247;-76
2023/04/12 05:37:11;;;;;;;6.77;2.60;;;5.00;99.90;;;;;;4889443;29;20242;-76
2023/04/12 05:39:39;;;;;;;5.50;2.77;;;5.10;99.90;;;;;;4891053;29;20213;-77
2023/04/12 05:42:08;;;;;;;4.80;2.50;;;5.10;99.90;;;;;;4889885;29;20241;-76
2023/04/12 05:44:39;;;;;;;6.27;2.40;;;5.10;99.90;;;;;;4891244;29;20217;-76
2023/04/12 05:47:07;;;;;;;4.33;2.30;;;5.10;99.90;;;;;;4891258;29;20305;-77
2023/04/12 05:49:35;;;;;;;5.03;2.83;;;5.20;99.90;;;;;;4891067;29;20221;-76
2023/04/12 05:52:05;;;;;;;4.87;2.20;;;5.30;99.90;;;;;;4890281;29;20210;-78
2023/04/12 05:54:33;;;;;;;4.90;2.70;;;5.20;99.90;;;;;;4891340;29;20213;-76
2023/04/12 05:57:03;;;;;;;5.40;2.50;;;5.30;99.90;;;;;;4890167;29;20616;-75
2023/04/12 05:59:32;;;;;;;5.63;2.43;;;5.40;99.90;;;;;;4889574;29;20210;-74
2023/04/12 06:02:00;;;;;;;3.33;2.10;;;5.30;99.90;;;;;;4888979;29;20238;-75
2023/04/12 06:04:29;;;;;;;4.80;2.50;;;5.30;99.90;;;;;;4889786;29;20246;-76
2023/04/12 06:07:16;;;;;;;4.90;2.40;;;5.30;99.90;;;;;;4890213;29;20194;-76
2023/04/12 06:09:44;;;;;;;5.40;2.53;;;5.40;99.90;;;;;;4890872;29;20209;-75
2023/04/12 06:12:12;;;;;;;3.90;2.13;;;5.40;99.90;;;;;;4889840;29;20253;-75
2023/04/12 06:14:42;;;;;;;4.53;2.70;;;5.40;99.90;;;;;;4896274;29;20210;-74
2023/04/12 06:17:10;;;;;;;4.37;2.40;;;5.50;99.90;;;;;;4891708;29;20596;-74
2023/04/12 06:19:38;;;;;;;4.50;2.40;;;5.60;99.90;;;;;;4888905;29;20209;-75
2023/04/12 06:22:06;;;;;;;6.03;2.50;;;5.60;99.90;;;;;;4892617;29;20309;-73
2023/04/12 06:24:34;;;;;;;4.87;2.10;;;5.80;99.90;;;;;;4891210;29;20206;-76
2023/04/12 06:27:02;;;;;;;5.57;2.43;;;5.70;99.90;;;;;;4898638;29;20241;-76
2023/04/12 06:29:30;;;;;;;4.67;2.10;;;5.80;99.90;;;;;;4894927;29;20716;-76
2023/04/12 06:32:00;;;;;;;4.97;2.10;;;5.80;99.90;;;;;;4899231;29;20220;-76
2023/04/12 06:34:28;;;;;;;6.67;2.03;;;5.80;99.90;;;;;;4890148;29;20225;-75
2023/04/12 06:36:57;;;;;;;2.60;1.83;;;5.80;99.90;;;;;;4880425;29;20229;-74
2023/04/12 06:39:25;;;;;;;5.70;2.30;;;5.80;99.90;;;;;;4890960;29;20246;-75
2023/04/12 06:41:54;;;;;;;4.33;2.20;;;5.80;99.90;;;;;;4880282;29;20692;-77
2023/04/12 06:44:22;;;;;;;2.60;1.83;;;5.80;99.90;;;;;;4880602;29;20309;-77
2023/04/12 06:46:51;;;;;;;4.60;1.93;;;6.40;99.90;;;;;;4880572;29;20222;-74
2023/04/12 06:49:20;;;;;;;4.77;2.03;;;6.30;99.90;;;;;;4880656;29;20304;-75
2023/04/12 06:51:48;;;;;;;8.07;4.57;;;6.20;99.90;;;;;;4880545;29;20370;-74
2023/04/12 06:54:16;;;;;;;4.43;2.23;;;6.10;99.90;;;;;;4883311;29;20238;-76
2023/04/12 06:56:44;;;;;;;5.23;2.27;;;6.10;99.90;;;;;;4898305;29;20305;-74
2023/04/12 06:59:13;;;;;;;5.93;2.53;;;6.10;99.90;;;;;;4898769;29;20239;-76
2023/04/12 07:01:41;;;;;;;3.97;2.17;;;6.10;99.90;;;;;;4893570;29;20252;-76
2023/04/12 07:04:11;;;;;;;5.53;2.27;;;6.10;99.90;;;;;;4879502;29;20640;-75
2023/04/12 07:06:41;;;;;;;5.00;2.20;;;6.10;99.90;;;;;;4879628;29;20576;-75
2023/04/12 07:09:09;;;;;;;4.43;2.23;;;6.20;99.90;;;;;;4879481;29;20221;-75
2023/04/12 07:11:38;;;;;;;5.30;2.20;;;6.40;99.90;;;;;;4879219;29;20665;-76
2023/04/12 07:14:06;;;;;;;5.03;2.10;;;6.50;99.90;;;;;;4879587;29;20221;-76
2023/04/12 07:16:34;;;;;;;5.43;2.40;;;6.60;99.90;;;;;;4884356;29;20212;-77
2023/04/12 07:19:02;;;;;;;4.80;2.50;;;6.70;99.90;;;;;;4893885;29;20298;-75
2023/04/12 07:21:30;;;;;;;3.73;2.30;;;6.70;99.90;;;;;;4892808;29;20304;-76
2023/04/12 07:24:00;;;;;;;5.97;2.30;;;6.80;99.90;;;;;;4897302;29;20258;-74
2023/04/12 07:26:29;;;;;;;5.60;2.47;;;6.90;99.90;;;;;;4897674;29;20619;-75
2023/04/12 07:28:57;;;;;;;3.23;1.83;;;6.90;99.90;;;;;;4897542;29;20216;-74
2023/04/12 07:31:29;;;;;;;6.30;2.20;;;6.90;99.90;;;;;;4881223;29;20225;-76
2023/04/12 07:33:57;;;;;;;4.20;2.07;;;6.90;99.90;;;;;;4880384;29;20657;-76
2023/04/12 07:36:26;;;;;;;4.60;2.00;;;7.00;99.90;;;;;;4888168;29;20681;-75
2023/04/12 07:38:55;;;;;;;5.27;2.50;;;7.10;99.90;;;;;;4889479;29;20237;-75
2023/04/12 07:41:25;;;;;;;3.30;1.93;;;7.00;99.90;;;;;;4886239;29;20294;-76
2023/04/12 07:43:53;;;;;;;6.03;1.97;;;6.90;99.90;;;;;;4887523;29;20633;-76
2023/04/12 07:46:21;;;;;;;3.67;1.90;;;6.90;99.90;;;;;;4887754;29;20752;-76
2023/04/12 07:48:51;;;;;;;4.67;2.30;;;6.70;99.90;;;;;;4887397;29;20666;-75
2023/04/12 07:51:19;;;;;;;6.57;2.40;;;6.90;99.90;;;;;;4887791;29;20636;-74
2023/04/12 07:53:47;;;;;;;3.63;1.90;;;7.00;99.90;;;;;;4883201;29;20677;-76
2023/04/12 07:56:15;;;;;;;3.57;1.90;;;7.10;99.90;;;;;;4879143;29;20593;-74
2023/04/12 07:58:44;;;;;;;5.50;2.17;;;7.00;99.90;;;;;;4878824;29;20248;-75
2023/04/12 08:01:13;;;;;;;3.93;2.13;;;7.00;99.90;;;;;;4879168;29;20319;-74
2023/04/12 08:03:42;;;;;;;4.33;2.07;;;7.20;99.90;;;;;;4896475;29;20785;-75
2023/04/12 08:06:10;;;;;;;4.07;2.10;;;7.40;99.90;;;;;;4916807;29;20217;-76
2023/04/12 08:08:39;;;;;;;2.90;1.83;;;7.30;99.90;;;;;;4913631;29;20259;-75
2023/04/12 08:11:07;;;;;;;4.93;1.97;;;7.50;99.90;;;;;;4879292;29;20242;-74
2023/04/12 08:13:36;;;;;;;5.07;2.20;;;7.80;99.90;;;;;;4879096;29;20217;-75
2023/04/12 08:16:07;;;;;;;3.63;1.77;;;7.90;99.90;;;;;;4878885;29;20315;-74
2023/04/12 08:18:35;;;;;;;3.40;1.80;;;8.30;99.90;;;;;;4879039;29;20301;-77
2023/04/12 08:21:03;;;;;;;3.20;1.90;;;8.60;99.90;;;;;;4894317;29;20628;-77
2023/04/12 08:23:32;;;;;;;5.37;1.87;;;8.80;99.90;;;;;;4897361;29;20672;-76
2023/04/12 08:26:02;;;;;;;3.17;2.20;;;8.70;99.90;;;;;;4897639;29;20218;-75
2023/04/12 08:28:31;;;;;;;3.77;2.00;;;8.70;99.90;;;;;;4892337;29;20559;-76
2023/04/12 08:30:59;;;;;;;5.30;2.17;;;8.40;99.90;;;;;;4888264;29;20216;-76
2023/04/12 08:33:29;;;;;;;3.73;2.00;;;8.60;99.90;;;;;;4888083;29;20211;-76
2023/04/12 08:35:57;;;;;;;2.33;1.90;;;8.50;99.90;;;;;;4886922;29;20292;-76
2023/04/12 08:38:26;;;;;;;3.17;2.10;;;8.50;99.90;;;;;;4888528;29;20218;-76
2023/04/12 08:41:11;;;;;;;3.57;2.10;;;8.50;99.90;;;;;;4886350;29;20278;-77
2023/04/12 08:43:44;;;;;;;4.00;1.90;;;8.50;99.90;;;;;;4877775;29;20222;-76
2023/04/12 08:46:14;;;;;;;3.37;2.07;;;8.40;99.90;;;;;;4883060;29;20289;-75
2023/04/12 08:48:46;;;;;;;4.10;2.43;;;8.30;99.90;;;;;;4888314;29;20292;-76
2023/04/12 08:51:16;;;;;;;4.90;2.43;;;8.20;99.90;;;;;;4891165;29;20214;-78
2023/04/12 08:53:44;;;;;;;3.50;2.30;;;8.20;99.90;;;;;;4907861;29;20288;-75
2023/04/12 08:56:13;;;;;;;4.00;2.70;;;8.10;99.90;;;;;;4918088;29;20570;-74
2023/04/12 08:58:47;;;;;;;4.57;2.53;;;8.20;99.90;;;;;;4896092;29;20233;-78
2023/04/12 09:01:17;;;;;;;5.17;2.43;;;8.50;99.90;;;;;;4892548;29;20254;-76
2023/04/12 09:03:46;;;;;;;3.63;2.60;;;8.80;99.90;;;;;;4900332;29;20206;-76
2023/04/12 09:06:15;;;;;;;5.40;2.30;;;8.50;99.90;;;;;;4895897;29;20220;-76
2023/04/12 09:08:53;;;;;;;4.10;2.70;;;8.40;99.90;;;;;;4900293;29;20235;-77
2023/04/12 09:11:24;;;;;;;4.13;2.30;;;8.50;99.90;;;;;;4883208;29;20214;-75
2023/04/12 09:13:53;;;;;;;2.37;1.80;;;8.60;99.90;;;;;;4918296;29;20201;-75
2023/04/12 09:16:35;;;;;;;2.50;1.90;;;8.70;99.90;;;;;;4922041;29;20215;-74
2023/04/12 09:19:04;;;;;;;2.77;2.00;;;8.70;99.90;;;;;;4906522;29;20229;-77
2023/04/12 09:21:34;;;;;;;3.87;2.20;;;8.90;99.90;;;;;;4880820;29;20218;-75
2023/04/12 09:24:08;;;;;;;2.40;2.07;;;8.70;99.90;;;;;;4896710;29;20236;-77
2023/04/12 09:26:40;;;;;;;2.70;1.93;;;8.80;99.90;;;;;;4904505;29;20215;-79
2023/04/12 09:29:23;;;;;;;3.40;2.20;;;8.80;99.90;;;;;;4910835;29;20216;-78
2023/04/12 09:31:56;;;;;;;4.93;2.47;;;8.80;99.90;;;;;;4897036;29;20221;-75
2023/04/12 09:34:26;;;;;;;3.70;2.20;;;8.80;99.90;;;;;;4913171;29;20300;-76
2023/04/12 09:36:55;;;;;;;4.40;2.40;;;8.90;99.90;;;;;;4919205;29;20290;-76
2023/04/12 09:39:33;;;;;;;3.73;2.13;;;8.80;99.90;;;;;;4901019;29;20285;-75
2023/04/12 09:42:06;;;;;;;4.13;2.23;;;8.70;99.90;;;;;;4894958;29;20568;-78
2023/04/12 09:44:53;;;;;;;3.33;2.50;;;8.70;99.90;;;;;;4901532;29;20252;-75
2023/04/12 09:47:21;;;;;;;3.67;2.40;;;8.80;99.90;;;;;;4904495;29;20215;-74
2023/04/12 09:49:50;;;;;;;2.30;2.10;;;9.00;99.90;;;;;;4907531;29;20594;-76
2023/04/12 09:52:19;;;;;;;3.90;2.20;;;9.30;99.90;;;;;;4914138;29;20229;-76
2023/04/12 09:54:48;;;;;;;4.37;2.23;;;9.60;99.90;;;;;;4910407;29;20273;-74
2023/04/12 09:57:18;;;;;;;3.53;2.00;;;10.20;99.90;;;;;;4882634;29;20222;-76
2023/04/12 09:59:48;;;;;;;2.57;1.73;;;11.00;99.90;;;;;;4881920;29;20316;-77
2023/04/12 10:02:18;;;;;;;2.67;1.60;;;11.90;99.90;;;;;;4909730;29;20687;-76
2023/04/12 10:04:50;;;;;;;2.90;1.80;;;12.70;99.90;;;;;;4889168;29;20557;-76
2023/04/12 10:07:19;;;;;;;4.10;1.60;;;13.40;99.90;;;;;;4897351;29;20204;-76
2023/04/12 10:09:48;;;;;;;3.50;1.80;;;14.40;99.90;;;;;;4902800;29;20720;-75
2023/04/12 10:12:16;;;;;;;1.93;1.60;;;14.20;99.90;;;;;;4896712;29;20217;-74
2023/04/12 10:14:45;;;;;;;1.43;1.20;;;14.10;99.90;;;;;;4894357;29;20244;-76
2023/04/12 10:17:14;;;;;;;4.00;1.73;;;13.80;99.90;;;;;;4893191;29;20212;-76
2023/04/12 10:19:44;;;;;;;1.67;1.30;;;13.90;99.90;;;;;;4902152;29;20733;-79
2023/04/12 10:22:14;;;;;;;3.23;1.50;;;13.30;99.90;;;;;;4900780;29;20219;-76
2023/04/12 10:24:43;;;;;;;1.77;1.20;;;13.20;99.90;;;;;;4899510;29;20606;-77
2023/04/12 10:27:14;;;;;;;2.10;1.40;;;13.10;99.90;;;;;;4888435;29;20210;-75
2023/04/12 10:29:42;;;;;;;2.10;1.27;;;12.80;99.90;;;;;;4896081;29;20298;-74
2023/04/12 10:32:22;;;;;;;2.10;1.50;;;12.90;99.90;;;;;;4897308;29;20646;-77
2023/04/12 10:34:55;;;;;;;3.27;1.40;;;12.90;99.90;;;;;;4901316;29;20214;-76
2023/04/12 10:38:02;;;;;;;2.13;1.30;;;13.00;99.90;;;;;;4900113;29;20202;-76
2023/04/12 10:40:31;;;;;;;2.03;1.50;;;13.40;99.90;;;;;;4894842;29;20233;-74
2023/04/12 10:43:27;;;;;;;3.77;1.50;;;14.10;99.90;;;;;;4894848;29;20660;-75
2023/04/12 10:45:56;;;;;;;1.80;1.37;;;14.60;99.90;;;;;;4908186;29;20218;-75
2023/04/12 10:48:30;;;;;;;1.20;1.10;;;14.40;99.90;;;;;;4913975;29;20198;-75
2023/04/12 10:51:21;;;;;;;2.30;1.40;;;15.10;99.90;;;;;;4906868;29;20273;-76
2023/04/12 10:53:51;;;;;;;1.73;1.30;;;15.20;99.90;;;;;;4917167;29;20241;-77
2023/04/12 10:56:42;;;;;;;4.27;1.50;;;14.80;99.90;;;;;;4917009;29;20726;-75
2023/04/12 10:59:11;;;;;;;2.37;1.00;;;14.30;99.90;;;;;;4901383;29;20216;-78
2023/04/12 11:01:40;;;;;;;1.73;1.27;;;14.20;99.90;;;;;;4898917;29;20758;-78
2023/04/12 11:04:14;;;;;;;1.60;1.43;;;14.00;99.90;;;;;;4894653;29;20209;-76
2023/04/12 11:06:49;;;;;;;2.77;1.20;;;13.80;99.90;;;;;;4894866;29;20205;-77
2023/04/12 11:09:24;;;;;;;2.13;1.03;;;13.70;99.90;;;;;;4904161;29;20201;-76
2023/04/12 11:11:57;;;;;;;2.97;1.10;;;12.90;99.90;;;;;;4910710;29;20206;-78
2023/04/12 11:14:37;;;;;;;1.97;1.30;;;13.30;99.90;;;;;;4904047;29;20205;-76
2023/04/12 11:17:24;;;;;;;1.67;1.57;;;13.20;99.90;;;;;;4908495;29;20212;-76
2023/04/12 11:19:55;;;;;;;1.60;1.40;;;12.80;99.90;;;;;;4908707;29;20772;-75
2023/04/12 11:22:26;;;;;;;1.60;1.30;;;13.10;99.90;;;;;;4888399;29;20246;-78
2023/04/12 11:24:57;;;;;;;1.90;1.13;;;13.50;99.90;;;;;;4890763;29;20273;-77
2023/04/12 11:27:26;;;;;;;1.70;1.33;;;13.30;99.90;;;;;;4898861;29;20288;-75
2023/04/12 11:29:56;;;;;;;2.63;1.30;;;13.40;99.90;;;;;;4898324;29;20236;-78
2023/04/12 11:32:26;;;;;;;2.53;1.40;;;13.60;99.90;;;;;;4895517;29;20237;-77
2023/04/12 11:34:56;;;;;;;1.63;1.10;;;13.10;99.90;;;;;;4889058;29;20211;-77
2023/04/12 11:37:26;;;;;;;1.23;1.13;;;13.10;99.90;;;;;;4885346;29;20609;-78
2023/04/12 11:39:57;;;;;;;1.40;1.10;;;13.40;99.90;;;;;;4904515;29;20224;-78
2023/04/12 11:42:27;;;;;;;2.90;1.50;;;13.80;99.90;;;;;;4895547;29;20273;-76
2023/04/12 11:44:56;;;;;;;1.63;1.40;;;14.00;99.90;;;;;;4897961;29;20197;-77
2023/04/12 11:47:33;;;;;;;1.77;1.10;;;13.70;99.90;;;;;;4897730;29;20265;-77
2023/04/12 11:50:01;;;;;;;2.43;1.90;;;13.90;99.90;;;;;;4888071;29;20214;-77
2023/04/12 11:52:31;;;;;;;1.50;1.40;;;13.80;99.90;;;;;;4880620;29;20219;-78
2023/04/12 11:55:03;;;;;;;1.90;1.20;;;14.10;99.90;;;;;;4897229;29;20230;-75
2023/04/12 11:57:32;;;;;;;1.50;1.17;;;14.50;99.90;;;;;;4889381;29;20205;-77
2023/04/12 12:00:01;;;;;;;1.20;1.03;;;14.20;99.90;;;;;;4894744;29;20217;-75
2023/04/12 12:02:33;;;;;;;2.53;1.50;;;14.10;99.90;;;;;;4896680;29;20213;-77
2023/04/12 12:05:17;;;;;;;2.10;1.50;;;13.70;99.90;;;;;;4895034;29;20301;-76
2023/04/12 12:07:46;;;;;;;4.13;2.00;;;13.50;99.90;;;;;;4893730;29;20205;-76
2023/04/12 12:10:17;;;;;;;2.80;2.10;;;13.40;99.90;;;;;;4896782;29;20256;-77
2023/04/12 12:13:10;;;;;;;2.93;1.70;;;13.60;99.90;;;;;;4896291;29;20217;-76
2023/04/12 12:15:39;;;;;;;2.27;1.60;;;13.80;99.90;;;;;;4894915;29;20598;-78
2023/04/12 12:18:08;;;;;;;1.83;1.40;;;14.10;99.90;;;;;;4894702;29;20634;-78
2023/04/12 12:20:41;;;;;;;2.40;1.37;;;14.20;99.90;;;;;;4894873;29;20225;-78
2023/04/12 12:23:09;;;;;;;1.63;1.50;;;14.40;99.90;;;;;;4894207;29;20690;-77
2023/04/12 12:25:46;;;;;;;2.80;1.80;;;14.30;99.90;;;;;;4896521;29;20217;-75
2023/04/12 12:28:14;;;;;;;1.67;1.57;;;14.30;99.90;;;;;;4894031;29;20216;-77
2023/04/12 12:30:42;;;;;;;1.30;1.20;;;14.10;99.90;;;;;;4896603;29;20198;-75
2023/04/12 12:33:12;;;;;;;1.37;1.20;;;14.00;99.90;;;;;;4893662;29;20210;-78
2023/04/12 12:35:40;;;;;;;2.00;1.30;;;13.80;99.90;;;;;;4896812;29;20222;-76
2023/04/12 12:38:10;;;;;;;1.43;1.30;;;13.40;99.90;;;;;;4897328;29;20209;-78
2023/04/12 12:40:41;;;;;;;1.30;1.20;;;13.20;99.90;;;;;;4896349;29;20638;-76
2023/04/12 12:43:19;;;;;;;3.03;1.60;;;13.40;99.90;;;;;;4881603;29;20297;-76
2023/04/12 12:45:47;;;;;;;5.23;2.70;;;13.50;99.90;;;;;;4878789;29;20305;-79
2023/04/12 12:48:18;;;;;;;4.97;2.57;;;13.70;99.90;;;;;;4878525;29;20253;-75
2023/04/12 12:50:46;;;;;;;3.13;2.47;;;13.90;99.90;;;;;;4886687;29;20257;-78
2023/04/12 12:53:14;;;;;;;3.80;2.77;;;14.00;99.90;;;;;;4895936;29;20233;-78
2023/04/12 12:55:44;;;;;;;4.77;2.03;;;14.20;99.90;;;;;;4896769;29;20233;-76
2023/04/12 12:58:12;;;;;;;2.07;1.50;;;14.30;99.90;;;;;;4895452;29;20221;-76
2023/04/12 13:00:40;;;;;;;2.07;1.20;;;14.50;99.90;;;;;;4897076;29;20301;-78
2023/04/12 13:03:08;;;;;;;1.17;1.10;;;14.60;99.90;;;;;;4896402;29;20241;-77
2023/04/12 13:05:37;;;;;;;1.77;1.10;;;14.70;99.90;;;;;;4896961;29;20576;-76
2023/04/12 13:08:05;;;;;;;4.23;1.10;;;14.90;99.90;;;;;;4895634;29;20581;-78
2023/04/12 13:10:33;;;;;;;1.27;1.17;;;15.30;99.90;;;;;;4896748;29;20216;-77